sensor_id;sensor_type;location;lat;lon;timestamp;P1;durP1;ratioP1;P2;durP2;ratioP2
23590;SDS011;11973;52.098;7.582;2023-04-25T03:46:48;16.30;;;5.28;;
23590;SDS011;11973;52.098;7.582;2023-04-25T03:49:14;13.88;;;4.80;;
23590;SDS011;11973;52.098;7.582;2023-04-25T03:51:54;12.75;;;5.07;;
23590;SDS011;11973;52.098;7.582;2023-04-25T03:54:21;15.80;;;4.80;;
23590;SDS011;11973;52.098;7.582;2023-04-25T03:56:54;16.75;;;4.22;;
23590;SDS011;11973;52.098;7.582;2023-04-25T03:59:24;14.95;;;4.43;;
23590;SDS011;11973;52.098;7.582;2023-04-25T04:01:51;14.10;;;5.07;;
23590;SDS011;11973;52.098;7.582;2023-04-25T04:04:17;14.77;;;4.97;;
23590;SDS011;11973;52.098;7.582;2023-04-25T04:06:44;14.88;;;5.45;;
23590;SDS011;11973;52.098;7.582;2023-04-25T04:09:15;8.63;;;4.22;;
23590;SDS011;11973;52.098;7.582;2023-04-25T04:11:42;12.60;;;4.43;;
23590;SDS011;11973;52.098;7.582;2023-04-25T04:14:08;13.85;;;4.55;;
23590;SDS011;11973;52.098;7.582;2023-04-25T04:16:37;13.10;;;4.30;;
23590;SDS011;11973;52.098;7.582;2023-04-25T04:19:03;19.90;;;5.47;;
23590;SDS011;11973;52.098;7.582;2023-04-25T04:21:30;15.02;;;4.57;;
23590;SDS011;11973;52.098;7.582;2023-04-25T04:23:57;16.33;;;4.72;;
23590;SDS011;11973;52.098;7.582;2023-04-25T04:26:25;13.52;;;5.00;;
23590;SDS011;11973;52.098;7.582;2023-04-25T04:29:00;10.30;;;4.47;;
23590;SDS011;11973;52.098;7.582;2023-04-25T04:31:45;13.32;;;4.95;;
23590;SDS011;11973;52.098;7.582;2023-04-25T04:34:10;17.38;;;4.45;;
23590;SDS011;11973;52.098;7.582;2023-04-25T04:36:37;13.65;;;4.50;;
23590;SDS011;11973;52.098;7.582;2023-04-25T04:39:05;13.40;;;4.35;;
23590;SDS011;11973;52.098;7.582;2023-04-25T04:41:37;11.43;;;4.70;;
23590;SDS011;11973;52.098;7.582;2023-04-25T04:44:10;13.15;;;4.38;;
23590;SDS011;11973;52.098;7.582;2023-04-25T04:46:48;13.80;;;4.43;;
23590;SDS011;11973;52.098;7.582;2023-04-25T04:49:52;17.77;;;5.10;;
23590;SDS011;11973;52.098;7.582;2023-04-25T04:52:36;14.32;;;4.50;;
23590;SDS011;11973;52.098;7.582;2023-04-25T04:55:41;20.55;;;5.72;;
23590;SDS011;11973;52.098;7.582;2023-04-25T04:58:31;15.38;;;4.60;;
23590;SDS011;11973;52.098;7.582;2023-04-25T05:01:06;14.65;;;4.75;;
23590;SDS011;11973;52.098;7.582;2023-04-25T05:03:52;17.60;;;4.88;;
23590;SDS011;11973;52.098;7.582;2023-04-25T05:06:47;19.58;;;4.88;;
23590;SDS011;11973;52.098;7.582;2023-04-25T05:09:31;15.93;;;4.82;;
23590;SDS011;11973;52.098;7.582;2023-04-25T05:12:22;11.48;;;4.60;;
23590;SDS011;11973;52.098;7.582;2023-04-25T05:14:59;14.10;;;4.93;;
23590;SDS011;11973;52.098;7.582;2023-04-25T05:17:49;11.57;;;4.18;;
23590;SDS011;11973;52.098;7.582;2023-04-25T05:20:18;16.33;;;4.72;;
23590;SDS011;11973;52.098;7.582;2023-04-25T05:23:02;14.65;;;4.60;;
23590;SDS011;11973;52.098;7.582;2023-04-25T05:25:47;10.70;;;4.03;;
23590;SDS011;11973;52.098;7.582;2023-04-25T05:28:36;11.82;;;4.30;;
23590;SDS011;11973;52.098;7.582;2023-04-25T05:31:20;12.15;;;3.95;;
23590;SDS011;11973;52.098;7.582;2023-04-25T05:34:09;9.57;;;3.92;;
23590;SDS011;11973;52.098;7.582;2023-04-25T05:36:42;15.68;;;4.00;;
23590;SDS011;11973;52.098;7.582;2023-04-25T05:39:09;10.20;;;3.83;;
23590;SDS011;11973;52.098;7.582;2023-04-25T05:41:54;8.43;;;3.53;;
23590;SDS011;11973;52.098;7.582;2023-04-25T05:44:38;14.52;;;4.35;;
23590;SDS011;11973;52.098;7.582;2023-04-25T05:47:23;11.32;;;3.90;;
23590;SDS011;11973;52.098;7.582;2023-04-25T05:50:07;7.70;;;3.25;;
23590;SDS011;11973;52.098;7.582;2023-04-25T05:53:03;10.38;;;3.72;;
23590;SDS011;11973;52.098;7.582;2023-04-25T05:55:34;13.48;;;3.58;;
23590;SDS011;11973;52.098;7.582;2023-04-25T05:58:10;9.65;;;3.10;;
23590;SDS011;11973;52.098;7.582;2023-04-25T06:00:36;9.10;;;3.13;;
23590;SDS011;11973;52.098;7.582;2023-04-25T06:03:03;12.32;;;3.47;;
23590;SDS011;11973;52.098;7.582;2023-04-25T06:05:29;8.65;;;3.05;;
23590;SDS011;11973;52.098;7.582;2023-04-25T06:07:55;7.30;;;3.33;;
23590;SDS011;11973;52.098;7.582;2023-04-25T06:10:21;9.45;;;3.60;;
23590;SDS011;11973;52.098;7.582;2023-04-25T06:12:47;6.85;;;2.97;;
23590;SDS011;11973;52.098;7.582;2023-04-25T06:15:15;6.05;;;3.00;;
23590;SDS011;11973;52.098;7.582;2023-04-25T06:17:41;5.63;;;2.47;;
23590;SDS011;11973;52.098;7.582;2023-04-25T06:20:07;8.48;;;3.00;;
23590;SDS011;11973;52.098;7.582;2023-04-25T06:22:34;10.25;;;2.63;;
23590;SDS011;11973;52.098;7.582;2023-04-25T06:24:59;9.27;;;2.75;;
23590;SDS011;11973;52.098;7.582;2023-04-25T06:27:26;13.05;;;2.97;;
23590;SDS011;11973;52.098;7.582;2023-04-25T06:29:52;8.48;;;3.00;;
23590;SDS011;11973;52.098;7.582;2023-04-25T06:32:18;10.05;;;2.70;;
23590;SDS011;11973;52.098;7.582;2023-04-25T06:34:43;12.63;;;2.95;;
23590;SDS011;11973;52.098;7.582;2023-04-25T06:37:10;9.00;;;2.42;;
23590;SDS011;11973;52.098;7.582;2023-04-25T06:39:36;8.05;;;2.60;;
23590;SDS011;11973;52.098;7.582;2023-04-25T06:42:01;7.05;;;2.25;;
23590;SDS011;11973;52.098;7.582;2023-04-25T06:44:46;8.75;;;2.42;;
23590;SDS011;11973;52.098;7.582;2023-04-25T06:47:12;5.78;;;2.53;;
23590;SDS011;11973;52.098;7.582;2023-04-25T06:49:41;5.15;;;2.10;;
23590;SDS011;11973;52.098;7.582;2023-04-25T06:52:07;5.45;;;1.63;;
23590;SDS011;11973;52.098;7.582;2023-04-25T06:54:33;5.13;;;2.55;;
23590;SDS011;11973;52.098;7.582;2023-04-25T06:57:13;8.05;;;2.42;;
23590;SDS011;11973;52.098;7.582;2023-04-25T06:59:39;6.22;;;2.42;;
23590;SDS011;11973;52.098;7.582;2023-04-25T07:02:05;8.38;;;2.38;;
23590;SDS011;11973;52.098;7.582;2023-04-25T07:04:32;6.32;;;2.10;;
23590;SDS011;11973;52.098;7.582;2023-04-25T07:06:58;4.93;;;2.22;;
23590;SDS011;11973;52.098;7.582;2023-04-25T07:09:32;6.90;;;2.13;;
23590;SDS011;11973;52.098;7.582;2023-04-25T07:11:59;4.10;;;2.05;;
23590;SDS011;11973;52.098;7.582;2023-04-25T07:14:26;3.55;;;1.92;;
23590;SDS011;11973;52.098;7.582;2023-04-25T07:16:53;4.90;;;2.30;;
23590;SDS011;11973;52.098;7.582;2023-04-25T07:19:21;8.70;;;2.47;;
23590;SDS011;11973;52.098;7.582;2023-04-25T07:21:49;6.32;;;2.50;;
23590;SDS011;11973;52.098;7.582;2023-04-25T07:24:14;7.90;;;2.28;;
23590;SDS011;11973;52.098;7.582;2023-04-25T07:26:44;8.15;;;2.55;;
23590;SDS011;11973;52.098;7.582;2023-04-25T07:29:23;5.60;;;2.05;;
23590;SDS011;11973;52.098;7.582;2023-04-25T07:31:49;5.07;;;1.85;;
23590;SDS011;11973;52.098;7.582;2023-04-25T07:34:15;5.47;;;2.33;;
23590;SDS011;11973;52.098;7.582;2023-04-25T07:36:41;6.88;;;2.05;;
23590;SDS011;11973;52.098;7.582;2023-04-25T07:39:07;7.95;;;2.53;;
23590;SDS011;11973;52.098;7.582;2023-04-25T07:41:34;4.20;;;2.08;;
23590;SDS011;11973;52.098;7.582;2023-04-25T07:44:00;7.25;;;2.17;;
23590;SDS011;11973;52.098;7.582;2023-04-25T07:46:26;6.35;;;2.35;;
23590;SDS011;11973;52.098;7.582;2023-04-25T07:48:52;7.85;;;2.08;;
23590;SDS011;11973;52.098;7.582;2023-04-25T07:51:18;2.92;;;1.95;;
23590;SDS011;11973;52.098;7.582;2023-04-25T07:53:45;7.85;;;2.10;;
23590;SDS011;11973;52.098;7.582;2023-04-25T07:56:14;4.28;;;1.80;;
23590;SDS011;11973;52.098;7.582;2023-04-25T07:58:42;5.00;;;2.20;;
23590;SDS011;11973;52.098;7.582;2023-04-25T08:01:12;5.28;;;2.30;;
23590;SDS011;11973;52.098;7.582;2023-04-25T08:03:52;4.70;;;2.28;;
23590;SDS011;11973;52.098;7.582;2023-04-25T08:06:38;5.97;;;2.25;;
23590;SDS011;11973;52.098;7.582;2023-04-25T08:09:12;7.00;;;2.65;;
23590;SDS011;11973;52.098;7.582;2023-04-25T08:11:40;5.40;;;1.92;;
23590;SDS011;11973;52.098;7.582;2023-04-25T08:14:09;3.05;;;1.63;;
23590;SDS011;11973;52.098;7.582;2023-04-25T08:16:37;7.30;;;2.15;;
23590;SDS011;11973;52.098;7.582;2023-04-25T08:19:04;4.40;;;1.35;;
23590;SDS011;11973;52.098;7.582;2023-04-25T08:21:30;2.58;;;1.40;;
23590;SDS011;11973;52.098;7.582;2023-04-25T08:24:00;2.53;;;1.48;;
23590;SDS011;11973;52.098;7.582;2023-04-25T08:26:30;4.10;;;1.75;;
23590;SDS011;11973;52.098;7.582;2023-04-25T08:28:58;4.97;;;2.28;;
23590;SDS011;11973;52.098;7.582;2023-04-25T08:31:24;2.17;;;1.25;;
23590;SDS011;11973;52.098;7.582;2023-04-25T08:33:56;3.38;;;1.55;;
23590;SDS011;11973;52.098;7.582;2023-04-25T08:36:34;4.18;;;1.52;;
23590;SDS011;11973;52.098;7.582;2023-04-25T08:39:00;1.95;;;1.20;;
23590;SDS011;11973;52.098;7.582;2023-04-25T08:41:26;3.53;;;1.50;;
23590;SDS011;11973;52.098;7.582;2023-04-25T08:43:52;4.18;;;1.60;;
23590;SDS011;11973;52.098;7.582;2023-04-25T08:46:22;3.45;;;1.73;;
23590;SDS011;11973;52.098;7.582;2023-04-25T08:49:01;4.45;;;1.45;;
23590;SDS011;11973;52.098;7.582;2023-04-25T08:51:29;3.40;;;1.27;;
23590;SDS011;11973;52.098;7.582;2023-04-25T08:54:32;5.28;;;1.30;;
23590;SDS011;11973;52.098;7.582;2023-04-25T08:56:53;2.28;;;1.13;;
23590;SDS011;11973;52.098;7.582;2023-04-25T08:59:20;4.53;;;1.95;;
23590;SDS011;11973;52.098;7.582;2023-04-25T09:01:48;1.55;;;1.45;;
23590;SDS011;11973;52.098;7.582;2023-04-25T09:04:15;6.00;;;1.63;;
23590;SDS011;11973;52.098;7.582;2023-04-25T09:06:41;1.92;;;1.48;;
23590;SDS011;11973;52.098;7.582;2023-04-25T09:09:07;2.25;;;1.20;;
23590;SDS011;11973;52.098;7.582;2023-04-25T09:11:35;3.13;;;1.15;;
23590;SDS011;11973;52.098;7.582;2023-04-25T09:14:13;1.75;;;0.80;;
23590;SDS011;11973;52.098;7.582;2023-04-25T09:17:14;3.08;;;1.20;;
23590;SDS011;11973;52.098;7.582;2023-04-25T09:19:46;1.65;;;0.70;;
23590;SDS011;11973;52.098;7.582;2023-04-25T09:22:41;1.90;;;0.70;;
23590;SDS011;11973;52.098;7.582;2023-04-25T09:25:11;2.33;;;0.88;;
23590;SDS011;11973;52.098;7.582;2023-04-25T09:27:50;3.55;;;0.93;;
23590;SDS011;11973;52.098;7.582;2023-04-25T09:30:30;4.32;;;0.88;;
23590;SDS011;11973;52.098;7.582;2023-04-25T09:33:06;4.00;;;1.27;;
23590;SDS011;11973;52.098;7.582;2023-04-25T09:35:37;2.78;;;1.10;;
23590;SDS011;11973;52.098;7.582;2023-04-25T09:38:08;1.15;;;1.02;;
23590;SDS011;11973;52.098;7.582;2023-04-25T09:40:53;3.90;;;0.90;;
23590;SDS011;11973;52.098;7.582;2023-04-25T09:43:29;2.22;;;1.00;;
23590;SDS011;11973;52.098;7.582;2023-04-25T09:45:55;2.83;;;1.25;;
23590;SDS011;11973;52.098;7.582;2023-04-25T09:48:25;1.38;;;0.98;;
23590;SDS011;11973;52.098;7.582;2023-04-25T09:53:44;1.63;;;1.08;;
23590;SDS011;11973;52.098;7.582;2023-04-25T09:56:27;3.83;;;0.90;;
23590;SDS011;11973;52.098;7.582;2023-04-25T09:58:59;2.45;;;1.10;;
23590;SDS011;11973;52.098;7.582;2023-04-25T10:01:25;1.08;;;0.98;;
23590;SDS011;11973;52.098;7.582;2023-04-25T10:04:06;1.17;;;1.08;;
23590;SDS011;11973;52.098;7.582;2023-04-25T10:06:39;1.25;;;0.88;;
23590;SDS011;11973;52.098;7.582;2023-04-25T10:09:08;1.27;;;1.13;;
23590;SDS011;11973;52.098;7.582;2023-04-25T10:11:34;2.67;;;0.90;;
23590;SDS011;11973;52.098;7.582;2023-04-25T10:14:01;3.92;;;1.23;;
23590;SDS011;11973;52.098;7.582;2023-04-25T10:16:27;3.13;;;0.90;;
23590;SDS011;11973;52.098;7.582;2023-04-25T10:18:54;3.13;;;1.30;;
23590;SDS011;11973;52.098;7.582;2023-04-25T10:21:20;4.40;;;1.00;;
23590;SDS011;11973;52.098;7.582;2023-04-25T10:23:47;1.63;;;0.90;;
23590;SDS011;11973;52.098;7.582;2023-04-25T10:26:14;1.05;;;0.93;;
23590;SDS011;11973;52.098;7.582;2023-04-25T10:31:38;1.60;;;0.90;;
23590;SDS011;11973;52.098;7.582;2023-04-25T10:34:10;0.77;;;0.73;;
23590;SDS011;11973;52.098;7.582;2023-04-25T10:36:36;0.90;;;0.70;;
23590;SDS011;11973;52.098;7.582;2023-04-25T10:39:06;1.63;;;0.90;;
23590;SDS011;11973;52.098;7.582;2023-04-25T10:41:46;3.00;;;1.00;;
23590;SDS011;11973;52.098;7.582;2023-04-25T10:44:13;1.25;;;0.98;;
23590;SDS011;11973;52.098;7.582;2023-04-25T10:46:40;1.35;;;0.55;;
23590;SDS011;11973;52.098;7.582;2023-04-25T10:49:06;0.98;;;0.90;;
23590;SDS011;11973;52.098;7.582;2023-04-25T10:51:34;0.60;;;0.60;;
23590;SDS011;11973;52.098;7.582;2023-04-25T10:54:05;2.00;;;1.02;;
23590;SDS011;11973;52.098;7.582;2023-04-25T11:01:30;2.75;;;0.73;;
23590;SDS011;11973;52.098;7.582;2023-04-25T11:09:24;1.50;;;1.00;;
23590;SDS011;11973;52.098;7.582;2023-04-25T11:11:53;1.65;;;0.80;;
23590;SDS011;11973;52.098;7.582;2023-04-25T11:14:20;1.52;;;0.80;;
23590;SDS011;11973;52.098;7.582;2023-04-25T11:16:47;0.95;;;0.70;;
23590;SDS011;11973;52.098;7.582;2023-04-25T11:19:19;1.17;;;0.60;;
23590;SDS011;11973;52.098;7.582;2023-04-25T11:21:45;2.65;;;0.90;;
23590;SDS011;11973;52.098;7.582;2023-04-25T11:24:11;1.00;;;1.00;;
23590;SDS011;11973;52.098;7.582;2023-04-25T11:26:36;3.40;;;1.15;;
23590;SDS011;11973;52.098;7.582;2023-04-25T11:29:02;0.85;;;0.80;;
23590;SDS011;11973;52.098;7.582;2023-04-25T11:31:28;1.00;;;0.90;;
23590;SDS011;11973;52.098;7.582;2023-04-25T11:33:57;3.25;;;1.15;;
23590;SDS011;11973;52.098;7.582;2023-04-25T11:36:24;1.45;;;1.05;;
23590;SDS011;11973;52.098;7.582;2023-04-25T11:38:51;1.05;;;0.88;;
23590;SDS011;11973;52.098;7.582;2023-04-25T11:41:18;1.85;;;0.88;;
23590;SDS011;11973;52.098;7.582;2023-04-25T11:43:47;0.57;;;0.57;;
23590;SDS011;11973;52.098;7.582;2023-04-25T11:46:15;0.50;;;0.50;;
23590;SDS011;11973;52.098;7.582;2023-04-25T11:48:41;1.35;;;0.63;;
23590;SDS011;11973;52.098;7.582;2023-04-25T11:51:08;0.82;;;0.57;;
23590;SDS011;11973;52.098;7.582;2023-04-25T11:53:34;0.70;;;0.70;;
23590;SDS011;11973;52.098;7.582;2023-04-25T11:56:00;0.77;;;0.50;;
23590;SDS011;11973;52.098;7.582;2023-04-25T11:58:26;0.93;;;0.73;;
23590;SDS011;11973;52.098;7.582;2023-04-25T12:00:52;1.25;;;0.70;;
23590;SDS011;11973;52.098;7.582;2023-04-25T12:03:18;1.15;;;0.60;;
23590;SDS011;11973;52.098;7.582;2023-04-25T12:05:44;0.82;;;0.82;;
23590;SDS011;11973;52.098;7.582;2023-04-25T12:08:13;0.82;;;0.60;;
23590;SDS011;11973;52.098;7.582;2023-04-25T12:10:42;0.65;;;0.63;;
23590;SDS011;11973;52.098;7.582;2023-04-25T12:13:20;1.00;;;0.80;;
23590;SDS011;11973;52.098;7.582;2023-04-25T12:15:47;1.02;;;0.60;;
23590;SDS011;11973;52.098;7.582;2023-04-25T12:18:13;1.25;;;0.60;;
23590;SDS011;11973;52.098;7.582;2023-04-25T12:20:38;1.33;;;0.55;;
23590;SDS011;11973;52.098;7.582;2023-04-25T12:23:07;0.82;;;0.68;;
23590;SDS011;11973;52.098;7.582;2023-04-25T12:25:34;1.52;;;0.63;;
23590;SDS011;11973;52.098;7.582;2023-04-25T12:28:20;2.78;;;1.02;;
23590;SDS011;11973;52.098;7.582;2023-04-25T12:33:29;0.65;;;0.60;;
23590;SDS011;11973;52.098;7.582;2023-04-25T12:35:56;1.55;;;0.77;;
23590;SDS011;11973;52.098;7.582;2023-04-25T12:38:26;1.70;;;0.63;;
23590;SDS011;11973;52.098;7.582;2023-04-25T12:40:56;1.70;;;0.88;;
23590;SDS011;11973;52.098;7.582;2023-04-25T12:43:22;2.38;;;0.70;;
23590;SDS011;11973;52.098;7.582;2023-04-25T12:45:52;1.15;;;0.98;;
23590;SDS011;11973;52.098;7.582;2023-04-25T12:48:18;0.80;;;0.75;;
23590;SDS011;11973;52.098;7.582;2023-04-25T12:50:45;1.48;;;0.88;;
23590;SDS011;11973;52.098;7.582;2023-04-25T12:53:14;0.55;;;0.43;;
23590;SDS011;11973;52.098;7.582;2023-04-25T12:55:47;0.60;;;0.60;;
23590;SDS011;11973;52.098;7.582;2023-04-25T12:58:13;0.70;;;0.70;;
23590;SDS011;11973;52.098;7.582;2023-04-25T13:00:40;1.00;;;0.90;;
23590;SDS011;11973;52.098;7.582;2023-04-25T13:03:07;3.55;;;0.95;;
23590;SDS011;11973;52.098;7.582;2023-04-25T13:05:33;0.95;;;0.80;;
23590;SDS011;11973;52.098;7.582;2023-04-25T13:07:59;2.15;;;0.85;;
23590;SDS011;11973;52.098;7.582;2023-04-25T13:10:24;1.63;;;0.82;;
23590;SDS011;11973;52.098;7.582;2023-04-25T13:12:50;0.75;;;0.75;;
23590;SDS011;11973;52.098;7.582;2023-04-25T13:15:16;1.38;;;0.80;;
23590;SDS011;11973;52.098;7.582;2023-04-25T13:17:42;0.82;;;0.80;;
23590;SDS011;11973;52.098;7.582;2023-04-25T13:20:08;1.15;;;1.05;;
23590;SDS011;11973;52.098;7.582;2023-04-25T13:22:35;1.58;;;1.10;;
23590;SDS011;11973;52.098;7.582;2023-04-25T13:25:03;1.35;;;0.80;;
23590;SDS011;11973;52.098;7.582;2023-04-25T13:27:30;2.65;;;1.10;;
23590;SDS011;11973;52.098;7.582;2023-04-25T13:29:57;0.93;;;0.82;;
23590;SDS011;11973;52.098;7.582;2023-04-25T13:32:23;1.30;;;0.93;;
23590;SDS011;11973;52.098;7.582;2023-04-25T13:34:50;2.05;;;0.77;;
23590;SDS011;11973;52.098;7.582;2023-04-25T13:37:16;0.90;;;0.90;;
23590;SDS011;11973;52.098;7.582;2023-04-25T13:39:42;0.90;;;0.90;;
23590;SDS011;11973;52.098;7.582;2023-04-25T13:42:07;1.48;;;0.90;;
23590;SDS011;11973;52.098;7.582;2023-04-25T13:44:33;1.83;;;0.90;;
23590;SDS011;11973;52.098;7.582;2023-04-25T13:46:59;1.00;;;1.00;;
23590;SDS011;11973;52.098;7.582;2023-04-25T13:49:26;1.02;;;0.93;;
23590;SDS011;11973;52.098;7.582;2023-04-25T13:51:51;3.10;;;1.40;;
23590;SDS011;11973;52.098;7.582;2023-04-25T13:54:17;4.85;;;1.10;;
23590;SDS011;11973;52.098;7.582;2023-04-25T13:56:43;1.27;;;1.05;;
23590;SDS011;11973;52.098;7.582;2023-04-25T13:59:08;1.30;;;1.00;;
23590;SDS011;11973;52.098;7.582;2023-04-25T14:01:34;1.05;;;0.95;;
23590;SDS011;11973;52.098;7.582;2023-04-25T14:04:01;0.98;;;0.80;;
23590;SDS011;11973;52.098;7.582;2023-04-25T14:06:28;3.05;;;1.13;;
23590;SDS011;11973;52.098;7.582;2023-04-25T14:08:54;3.00;;;1.30;;
23590;SDS011;11973;52.098;7.582;2023-04-25T14:11:21;2.30;;;0.73;;
23590;SDS011;11973;52.098;7.582;2023-04-25T14:13:47;1.17;;;1.00;;
23590;SDS011;11973;52.098;7.582;2023-04-25T14:16:14;1.17;;;0.80;;
23590;SDS011;11973;52.098;7.582;2023-04-25T14:18:40;1.20;;;1.10;;
23590;SDS011;11973;52.098;7.582;2023-04-25T14:21:06;2.25;;;0.98;;
23590;SDS011;11973;52.098;7.582;2023-04-25T14:23:32;2.08;;;0.95;;
23590;SDS011;11973;52.098;7.582;2023-04-25T14:25:58;1.85;;;0.80;;
23590;SDS011;11973;52.098;7.582;2023-04-25T14:28:24;1.52;;;0.98;;
23590;SDS011;11973;52.098;7.582;2023-04-25T14:30:49;2.55;;;0.80;;
23590;SDS011;11973;52.098;7.582;2023-04-25T14:33:15;0.65;;;0.65;;
23590;SDS011;11973;52.098;7.582;2023-04-25T14:35:41;0.77;;;0.77;;
23590;SDS011;11973;52.098;7.582;2023-04-25T14:38:07;0.90;;;0.88;;
23590;SDS011;11973;52.098;7.582;2023-04-25T14:40:33;1.95;;;0.80;;
23590;SDS011;11973;52.098;7.582;2023-04-25T14:42:59;0.70;;;0.70;;
23590;SDS011;11973;52.098;7.582;2023-04-25T14:45:24;1.17;;;0.80;;
23590;SDS011;11973;52.098;7.582;2023-04-25T14:47:53;0.60;;;0.60;;
23590;SDS011;11973;52.098;7.582;2023-04-25T14:50:19;0.60;;;0.60;;
23590;SDS011;11973;52.098;7.582;2023-04-25T14:52:45;0.85;;;0.73;;
23590;SDS011;11973;52.098;7.582;2023-04-25T14:55:11;0.70;;;0.60;;
23590;SDS011;11973;52.098;7.582;2023-04-25T14:57:36;0.75;;;0.73;;
23590;SDS011;11973;52.098;7.582;2023-04-25T15:00:04;0.68;;;0.68;;
23590;SDS011;11973;52.098;7.582;2023-04-25T15:02:34;2.92;;;0.73;;
23590;SDS011;11973;52.098;7.582;2023-04-25T15:05:00;2.17;;;0.73;;
23590;SDS011;11973;52.098;7.582;2023-04-25T15:07:26;0.60;;;0.60;;
23590;SDS011;11973;52.098;7.582;2023-04-25T15:09:51;0.68;;;0.68;;
23590;SDS011;11973;52.098;7.582;2023-04-25T15:12:18;1.17;;;0.80;;
23590;SDS011;11973;52.098;7.582;2023-04-25T15:14:49;1.85;;;0.82;;
23590;SDS011;11973;52.098;7.582;2023-04-25T15:17:21;0.60;;;0.60;;
23590;SDS011;11973;52.098;7.582;2023-04-25T15:19:47;1.58;;;0.90;;
23590;SDS011;11973;52.098;7.582;2023-04-25T15:22:12;1.25;;;0.57;;
23590;SDS011;11973;52.098;7.582;2023-04-25T15:24:38;0.80;;;0.55;;
23590;SDS011;11973;52.098;7.582;2023-04-25T15:27:04;1.67;;;0.90;;
23590;SDS011;11973;52.098;7.582;2023-04-25T15:29:32;0.77;;;0.77;;
23590;SDS011;11973;52.098;7.582;2023-04-25T15:31:58;0.60;;;0.60;;
23590;SDS011;11973;52.098;7.582;2023-04-25T15:34:23;0.70;;;0.70;;
23590;SDS011;11973;52.098;7.582;2023-04-25T15:36:49;1.75;;;0.63;;
23590;SDS011;11973;52.098;7.582;2023-04-25T15:39:15;0.75;;;0.60;;
23590;SDS011;11973;52.098;7.582;2023-04-25T15:41:41;0.80;;;0.70;;
23590;SDS011;11973;52.098;7.582;2023-04-25T15:44:07;0.65;;;0.65;;
23590;SDS011;11973;52.098;7.582;2023-04-25T15:46:34;0.80;;;0.52;;
23590;SDS011;11973;52.098;7.582;2023-04-25T15:49:00;0.60;;;0.60;;
23590;SDS011;11973;52.098;7.582;2023-04-25T15:51:26;0.60;;;0.55;;
23590;SDS011;11973;52.098;7.582;2023-04-25T15:53:52;1.65;;;0.60;;
23590;SDS011;11973;52.098;7.582;2023-04-25T15:56:18;0.82;;;0.77;;
23590;SDS011;11973;52.098;7.582;2023-04-25T15:58:44;2.15;;;1.15;;
23590;SDS011;11973;52.098;7.582;2023-04-25T16:01:10;2.80;;;1.00;;
23590;SDS011;11973;52.098;7.582;2023-04-25T16:03:35;0.98;;;0.70;;
23590;SDS011;11973;52.098;7.582;2023-04-25T16:06:02;1.15;;;0.88;;
23590;SDS011;11973;52.098;7.582;2023-04-25T16:08:28;1.55;;;0.70;;
23590;SDS011;11973;52.098;7.582;2023-04-25T16:10:58;1.05;;;0.80;;
23590;SDS011;11973;52.098;7.582;2023-04-25T16:13:25;0.73;;;0.73;;
23590;SDS011;11973;52.098;7.582;2023-04-25T16:15:51;4.00;;;0.85;;
23590;SDS011;11973;52.098;7.582;2023-04-25T16:18:17;1.27;;;0.80;;
23590;SDS011;11973;52.098;7.582;2023-04-25T16:20:43;1.00;;;0.70;;
23590;SDS011;11973;52.098;7.582;2023-04-25T16:23:09;1.67;;;0.70;;
23590;SDS011;11973;52.098;7.582;2023-04-25T16:25:35;4.07;;;0.85;;
23590;SDS011;11973;52.098;7.582;2023-04-25T16:28:00;1.60;;;0.90;;
23590;SDS011;11973;52.098;7.582;2023-04-25T16:30:26;0.75;;;0.57;;
23590;SDS011;11973;52.098;7.582;2023-04-25T16:32:52;3.53;;;0.98;;
23590;SDS011;11973;52.098;7.582;2023-04-25T16:35:18;0.65;;;0.65;;
23590;SDS011;11973;52.098;7.582;2023-04-25T16:37:43;1.17;;;0.95;;
23590;SDS011;11973;52.098;7.582;2023-04-25T16:40:09;1.10;;;0.80;;
23590;SDS011;11973;52.098;7.582;2023-04-25T16:42:35;1.13;;;0.95;;
23590;SDS011;11973;52.098;7.582;2023-04-25T16:45:01;2.67;;;0.80;;
23590;SDS011;11973;52.098;7.582;2023-04-25T16:47:29;1.90;;;1.13;;
23590;SDS011;11973;52.098;7.582;2023-04-25T16:49:55;1.20;;;0.80;;
23590;SDS011;11973;52.098;7.582;2023-04-25T16:52:22;1.10;;;0.88;;
23590;SDS011;11973;52.098;7.582;2023-04-25T16:54:48;1.10;;;0.98;;
23590;SDS011;11973;52.098;7.582;2023-04-25T16:57:14;2.53;;;1.05;;
23590;SDS011;11973;52.098;7.582;2023-04-25T16:59:39;1.73;;;0.90;;
23590;SDS011;11973;52.098;7.582;2023-04-25T17:02:06;3.30;;;0.88;;
23590;SDS011;11973;52.098;7.582;2023-04-25T17:04:36;0.93;;;0.82;;
23590;SDS011;11973;52.098;7.582;2023-04-25T17:07:02;1.10;;;0.82;;
23590;SDS011;11973;52.098;7.582;2023-04-25T17:09:28;1.15;;;0.90;;
23590;SDS011;11973;52.098;7.582;2023-04-25T17:11:54;0.95;;;0.70;;
23590;SDS011;11973;52.098;7.582;2023-04-25T17:14:20;1.30;;;0.70;;
23590;SDS011;11973;52.098;7.582;2023-04-25T17:16:46;2.00;;;0.70;;
23590;SDS011;11973;52.098;7.582;2023-04-25T17:19:11;0.60;;;0.60;;
23590;SDS011;11973;52.098;7.582;2023-04-25T17:21:37;1.02;;;0.88;;
23590;SDS011;11973;52.098;7.582;2023-04-25T17:24:03;1.15;;;0.50;;
23590;SDS011;11973;52.098;7.582;2023-04-25T17:26:34;0.95;;;0.90;;
23590;SDS011;11973;52.098;7.582;2023-04-25T17:29:00;2.05;;;0.82;;
23590;SDS011;11973;52.098;7.582;2023-04-25T17:31:26;2.60;;;1.10;;
23590;SDS011;11973;52.098;7.582;2023-04-25T17:33:52;1.08;;;0.93;;
23590;SDS011;11973;52.098;7.582;2023-04-25T17:36:19;1.95;;;1.02;;
23590;SDS011;11973;52.098;7.582;2023-04-25T17:38:45;2.15;;;0.93;;
23590;SDS011;11973;52.098;7.582;2023-04-25T17:41:11;1.95;;;1.00;;
23590;SDS011;11973;52.098;7.582;2023-04-25T17:43:39;1.05;;;0.95;;
23590;SDS011;11973;52.098;7.582;2023-04-25T17:46:05;0.93;;;0.85;;
23590;SDS011;11973;52.098;7.582;2023-04-25T17:48:31;1.15;;;0.80;;
23590;SDS011;11973;52.098;7.582;2023-04-25T17:50:57;1.20;;;1.10;;
23590;SDS011;11973;52.098;7.582;2023-04-25T17:53:24;2.88;;;0.90;;
23590;SDS011;11973;52.098;7.582;2023-04-25T17:55:50;1.02;;;0.82;;
23590;SDS011;11973;52.098;7.582;2023-04-25T17:58:16;1.42;;;1.00;;
23590;SDS011;11973;52.098;7.582;2023-04-25T18:00:42;2.78;;;1.00;;
23590;SDS011;11973;52.098;7.582;2023-04-25T18:03:08;1.35;;;1.10;;
23590;SDS011;11973;52.098;7.582;2023-04-25T18:05:33;1.58;;;1.10;;
23590;SDS011;11973;52.098;7.582;2023-04-25T18:08:00;2.20;;;1.20;;
23590;SDS011;11973;52.098;7.582;2023-04-25T18:10:26;2.08;;;1.20;;
23590;SDS011;11973;52.098;7.582;2023-04-25T18:12:55;1.10;;;1.02;;
23590;SDS011;11973;52.098;7.582;2023-04-25T18:15:21;2.40;;;1.30;;
23590;SDS011;11973;52.098;7.582;2023-04-25T18:17:47;1.40;;;0.90;;
23590;SDS011;11973;52.098;7.582;2023-04-25T18:20:13;1.00;;;1.00;;
23590;SDS011;11973;52.098;7.582;2023-04-25T18:22:41;3.30;;;1.10;;
23590;SDS011;11973;52.098;7.582;2023-04-25T18:25:09;2.20;;;1.20;;
23590;SDS011;11973;52.098;7.582;2023-04-25T18:27:36;2.97;;;1.17;;
23590;SDS011;11973;52.098;7.582;2023-04-25T18:30:06;2.65;;;1.17;;
23590;SDS011;11973;52.098;7.582;2023-04-25T18:32:33;1.38;;;1.00;;
23590;SDS011;11973;52.098;7.582;2023-04-25T18:35:00;1.45;;;1.00;;
23590;SDS011;11973;52.098;7.582;2023-04-25T18:37:26;3.00;;;0.98;;
23590;SDS011;11973;52.098;7.582;2023-04-25T18:39:52;2.55;;;1.00;;
23590;SDS011;11973;52.098;7.582;2023-04-25T18:42:18;4.22;;;1.25;;
23590;SDS011;11973;52.098;7.582;2023-04-25T18:44:44;4.10;;;1.10;;
23590;SDS011;11973;52.098;7.582;2023-04-25T18:47:10;1.60;;;0.93;;
23590;SDS011;11973;52.098;7.582;2023-04-25T18:49:39;3.53;;;1.40;;
23590;SDS011;11973;52.098;7.582;2023-04-25T18:52:06;2.55;;;1.10;;
23590;SDS011;11973;52.098;7.582;2023-04-25T18:54:37;3.42;;;1.45;;
23590;SDS011;11973;52.098;7.582;2023-04-25T18:57:09;3.38;;;1.45;;
23590;SDS011;11973;52.098;7.582;2023-04-25T18:59:41;4.65;;;1.20;;
23590;SDS011;11973;52.098;7.582;2023-04-25T19:02:17;2.28;;;1.00;;